Commodore Goodwill — C6NU8 — position and weather

sailwx.info

Track history (hours):
 
Tides and Currents Weather Stations Pressure Air Temp Water Temp Dewpoint Dewpoint Depression Visibility Wind Speed Wind Dir Waves Ship Positions

Commodore Goodwill

Operator: Condor Marine Services

Last reported at 2017-Dec-11 17:00 UTC. Time now 2017-Dec-14 15:06 UTC.
Position N 50°49' W 001°06'.

Length 126 m; draft 5.2 m.

Type: Ship (hazmat cat C). MMSI: 309536000.

Date/timePositionNaut miles runAvg speedWind from/ knotsBaromVisibWave heightAir tempDewpointWater temp
2017-Dec-11 17:00N 50°49' W 001°06'0 0.0
2017-Dec-11 16:31N 50°49' W 001°06'0 0.0
2017-Dec-11 16:01N 50°49' W 001°06'0 0.0
2017-Dec-11 15:31N 50°49' W 001°06'0 0.0
2017-Dec-11 15:00N 50°49' W 001°06'0 0.1
2017-Dec-11 14:31N 50°49' W 001°06'3 6.1
2017-Dec-11 14:01N 50°46' W 001°05'713.5
2017-Dec-11 13:30N 50°39' W 001°05'1118.2
2017-Dec-11 12:54N 50°30' W 001°15'3115.5
2017-Dec-11 10:53N 50°03' W 001°42'513.8
2017-Dec-11 10:30N 49°59' W 001°46'713.2
2017-Dec-11 09:57N 49°54' W 001°53'613.0
2017-Dec-11 09:29N 49°49' W 001°59'1913.0
2017-Dec-11 08:00N 49°32' W 002°14'612.8
2017-Dec-11 07:30N 49°28' W 002°22'611.7
2017-Dec-11 07:00N 49°25' W 002°29'2 3.1
2017-Dec-11 06:20N 49°24' W 002°32'2 7.1
2017-Dec-11 06:01N 49°25' W 002°29'713.4
2017-Dec-11 05:29N 49°19' W 002°25'85 8.8
2017-Dec-10 19:46N 50°31' W 001°14'519.1
2017-Dec-10 19:30N 50°35' W 001°09'917.9
2017-Dec-10 19:00N 50°43' W 001°03'612.4
2017-Dec-10 18:30N 50°48' W 001°07'1 1.7
2017-Dec-10 18:00N 50°49' W 001°06'0 0.0
2017-Dec-10 17:30N 50°49' W 001°06'0 0.0
2017-Dec-10 17:00N 50°49' W 001°06'0 0.0
2017-Dec-10 16:30N 50°49' W 001°06'0 0.0
2017-Dec-10 16:00N 50°49' W 001°06'0 0.0
2017-Dec-10 15:30N 50°49' W 001°06'0 0.0
2017-Dec-10 15:00N 50°49' W 001°06'0 0.0
2017-Dec-10 14:30N 50°49' W 001°06'0 0.0
2017-Dec-10 14:00N 50°49' W 001°06'0 0.0
2017-Dec-10 13:30N 50°49' W 001°06'0 0.0
2017-Dec-10 13:00N 50°49' W 001°06'0 0.0
2017-Dec-10 12:30N 50°49' W 001°06'0 0.0
2017-Dec-10 12:00N 50°49' W 001°06'0 0.0
2017-Dec-10 11:30N 50°49' W 001°06'0 0.0
2017-Dec-10 11:00N 50°49' W 001°06'0 0.0
2017-Dec-10 10:31N 50°49' W 001°06'0 0.0
2017-Dec-10 10:00N 50°49' W 001°06'0 0.0
2017-Dec-10 09:30N 50°49' W 001°06'0 0.0
2017-Dec-10 09:00N 50°49' W 001°06'0 0.0
2017-Dec-10 08:30N 50°49' W 001°06'0 0.0
2017-Dec-10 08:00N 50°49' W 001°06'0 0.0
2017-Dec-10 07:30N 50°49' W 001°06'0 0.0
2017-Dec-10 07:00N 50°49' W 001°06'0 0.0
2017-Dec-10 06:30N 50°49' W 001°06'0 0.0
2017-Dec-10 06:00N 50°49' W 001°06'0 0.0
2017-Dec-10 05:30N 50°49' W 001°06'0 0.0
2017-Dec-10 05:00N 50°49' W 001°06'0 0.0
2017-Dec-10 04:30N 50°49' W 001°06'0 0.0
2017-Dec-10 04:00N 50°49' W 001°06'0 0.0
2017-Dec-10 03:30N 50°49' W 001°06'0 0.0
2017-Dec-10 03:00N 50°49' W 001°06'0 0.0
2017-Dec-10 02:30N 50°49' W 001°06'0 0.0
2017-Dec-10 02:00N 50°49' W 001°06'0 0.0
2017-Dec-10 01:30N 50°49' W 001°06'0 0.0
2017-Dec-10 01:00N 50°49' W 001°06'0 0.0
2017-Dec-10 00:30N 50°49' W 001°06'0 0.0
2017-Dec-10 00:00N 50°49' W 001°06'0 0.0
2017-Dec-09 23:30N 50°49' W 001°06'0 0.0
2017-Dec-09 23:00N 50°49' W 001°06'0 0.0
2017-Dec-09 22:30N 50°49' W 001°06'0 0.0
2017-Dec-09 22:00N 50°49' W 001°06'0 0.0
2017-Dec-09 21:30N 50°49' W 001°06'0 0.0
2017-Dec-09 21:00N 50°49' W 001°06'1 1.1
2017-Dec-09 20:30N 50°49' W 001°07'510.5
2017-Dec-09 20:00N 50°44' W 001°03'612.6
2017-Dec-09 19:30N 50°38' W 001°04'6213.9
2017-Dec-09 15:02N 49°47' W 002°00'212.7
2017-Dec-09 14:51N 49°45' W 002°02'1613.8
2017-Dec-09 13:42N 49°30' W 002°12'517.1
2017-Dec-09 13:25N 49°26' W 002°14'1117.0
2017-Dec-09 12:45N 49°15' W 002°21'717.7
2017-Dec-09 12:22N 49°09' W 002°17'14 2.0
2017-Dec-09 05:10N 49°22' W 002°26'213.6
2017-Dec-09 05:01N 49°23' W 002°28'5 9.4
2017-Dec-09 04:30N 49°27' W 002°32'0 0.0
2017-Dec-09 04:00N 49°27' W 002°32'0 0.0
2017-Dec-09 03:30N 49°27' W 002°32'0 0.1
2017-Dec-09 03:00N 49°27' W 002°32'510.8
2017-Dec-09 02:30N 49°27' W 002°23'8915.2
2017-Dec-08 20:40N 50°39' W 001°01'214.6
2017-Dec-08 20:30N 50°41' W 001°01'714.3
2017-Dec-08 20:00N 50°47' W 001°07'2 3.1
2017-Dec-08 19:30N 50°49' W 001°06'0 0.0
2017-Dec-08 19:01N 50°49' W 001°06'0 0.0
2017-Dec-08 18:31N 50°49' W 001°06'0 0.0
2017-Dec-08 18:00N 50°49' W 001°06'0 0.0
2017-Dec-08 17:31N 50°49' W 001°06'0 0.0
2017-Dec-08 17:00N 50°49' W 001°06'0 0.0
2017-Dec-08 16:30N 50°49' W 001°06'2 3.7
2017-Dec-08 16:01N 50°47' W 001°06'713.8
2017-Dec-08 15:30N 50°40' W 001°04'4116.6
2017-Dec-08 13:01N 50°06' W 001°40'117.2
2017-Dec-08 12:58N 50°05' W 001°40'917.9
2017-Dec-08 12:30N 49°57' W 001°47'918.1
2017-Dec-08 11:59N 49°50' W 001°55'1120.4
2017-Dec-08 11:27N 49°42' W 002°07'817.1
2017-Dec-08 10:58N 49°34' W 002°09'1018.2
2017-Dec-08 10:25N 49°25' W 002°14'817.6
2017-Dec-08 09:58N 49°20' W 002°24'510.3
2017-Dec-08 09:30N 49°16' W 002°28'5 1.1
2017-Dec-08 04:42N 49°21' W 002°28'316.0
2017-Dec-08 04:29N 49°25' W 002°29'3 7.0
2017-Dec-08 04:01N 49°27' W 002°32'0 0.0
2017-Dec-08 03:31N 49°27' W 002°32'0 0.0
2017-Dec-08 03:00N 49°27' W 002°32'4 8.3
2017-Dec-08 02:30N 49°26' W 002°26'814.8
2017-Dec-08 02:00N 49°31' W 002°16'8114.9
2017-Dec-07 20:32N 50°37' W 001°03'115.8
2017-Dec-07 20:27N 50°39' W 001°02'613.2
2017-Dec-07 20:00N 50°44' W 001°04'5 9.1
2017-Dec-07 19:30N 50°49' W 001°06'0 0.3
2017-Dec-07 19:00N 50°49' W 001°06'0 0.0
2017-Dec-07 18:30N 50°49' W 001°06'0 0.0
2017-Dec-07 18:01N 50°49' W 001°06'0 0.0
2017-Dec-07 17:30N 50°49' W 001°06'0 0.0
2017-Dec-07 17:00N 50°49' W 001°06'0 0.0
2017-Dec-07 16:30N 50°49' W 001°06'2 3.8
2017-Dec-07 16:01N 50°47' W 001°06'713.7
2017-Dec-07 15:30N 50°40' W 001°04'4115.2
2017-Dec-07 12:47N 50°06' W 001°39'518.6
2017-Dec-07 12:30N 50°01' W 001°43'1018.6
2017-Dec-07 11:58N 49°53' W 001°52'1120.7
2017-Dec-07 11:27N 49°44' W 002°02'818.1
2017-Dec-07 11:00N 49°36' W 002°05'1219.6
2017-Dec-07 10:23N 49°26' W 002°14'819.9
2017-Dec-07 10:00N 49°20' W 002°21'4 0.9
2017-Dec-07 05:41N 49°21' W 002°27'317.3
2017-Dec-07 05:31N 49°24' W 002°29'4 7.4
2017-Dec-07 05:00N 49°27' W 002°32'0 0.0
2017-Dec-07 04:30N 49°27' W 002°32'0 0.0
2017-Dec-07 04:00N 49°27' W 002°32'4 7.3
2017-Dec-07 03:31N 49°26' W 002°27'917.2
2017-Dec-07 03:00N 49°31' W 002°16'8113.9
2017-Dec-06 21:10N 50°37' W 001°03'211.1
2017-Dec-06 20:57N 50°39' W 001°01'  
2017-Dec-04 09:22N 49°19' W 002°19'4 0.9
2017-Dec-04 04:27N 49°20' W 002°25'5 8.9
2017-Dec-04 03:56N 49°24' W 002°28'4 9.2
2017-Dec-04 03:30N 49°27' W 002°32'0 0.1
2017-Dec-04 03:00N 49°27' W 002°32'4 7.3
2017-Dec-04 02:30N 49°26' W 002°26'611.5
2017-Dec-04 02:00N 49°29' W 002°19'2212.2
2017-Dec-04 00:12N 49°48' W 002°01'313.0
2017-Dec-04 00:00N 49°50' W 001°59'612.1
2017-Dec-03 23:30N 49°55' W 001°54'612.0
2017-Dec-03 23:00N 50°01' W 001°50'611.5
2017-Dec-03 22:30N 50°05' W 001°43'510.7
2017-Dec-03 22:00N 50°09' W 001°37'3012.7
2017-Dec-03 19:37N 50°33' W 001°10'310.9
2017-Dec-03 19:22N 50°36' W 001°08'512.1
2017-Dec-03 18:59N 50°40' W 001°04'612.0
2017-Dec-03 18:30N 50°45' W 001°05'3 6.9
2017-Dec-03 18:00N 50°49' W 001°06'0 0.0
2017-Dec-03 17:31N 50°49' W 001°06'0 0.0
2017-Dec-03 17:00N 50°49' W 001°06'0 0.0
2017-Dec-03 16:30N 50°49' W 001°06'0 0.0
2017-Dec-03 16:00N 50°49' W 001°06'0 0.0
2017-Dec-03 15:31N 50°49' W 001°06'0 0.0
2017-Dec-03 15:00N 50°49' W 001°06'0 0.0
2017-Dec-03 14:30N 50°49' W 001°06'0 0.0
2017-Dec-03 14:00N 50°49' W 001°06'0 0.0
2017-Dec-03 13:30N 50°49' W 001°06'0 0.0
2017-Dec-03 13:01N 50°49' W 001°06'0 0.0
2017-Dec-03 12:30N 50°49' W 001°06'0 0.0
2017-Dec-03 12:00N 50°49' W 001°06'0 0.0
2017-Dec-03 11:30N 50°49' W 001°06'0 0.0
2017-Dec-03 11:00N 50°49' W 001°06'0 0.0
2017-Dec-03 10:31N 50°49' W 001°06'0 0.0
2017-Dec-03 10:00N 50°49' W 001°06'0 0.0
2017-Dec-03 09:30N 50°49' W 001°06'0 0.0
2017-Dec-03 09:01N 50°49' W 001°06'0 0.0
2017-Dec-03 08:31N 50°49' W 001°06'0 0.0
2017-Dec-03 08:01N 50°49' W 001°06'0 0.0
2017-Dec-03 07:30N 50°49' W 001°06'0 0.0
2017-Dec-03 07:00N 50°49' W 001°06'0 0.0
2017-Dec-03 06:30N 50°49' W 001°06'1 1.3
2017-Dec-03 06:00N 50°48' W 001°07'2 3.7
2017-Dec-03 05:30N 50°47' W 001°06'714.4
2017-Dec-03 05:01N 50°40' W 001°00'910.4
2017-Dec-03 04:09N 50°33' W 001°08'1 8.6
2017-Dec-03 04:00N 50°32' W 001°10'3210.0
2017-Dec-03 00:45N 50°06' W 001°40'2 9.8
2017-Dec-03 00:30N 50°04' W 001°42'5 9.7
2017-Dec-03 00:00N 49°60' W 001°46'5 9.9
2017-Dec-02 23:30N 49°56' W 001°50'510.2
2017-Dec-02 23:00N 49°52' W 001°55'2110.2
2017-Dec-02 20:57N 49°33' W 002°10'510.5
2017-Dec-02 20:31N 49°31' W 002°16'510.9
2017-Dec-02 20:00N 49°28' W 002°23'4 8.7
2017-Dec-02 19:30N 49°27' W 002°30'2 3.1
2017-Dec-02 19:00N 49°27' W 002°32'0 0.0
2017-Dec-02 18:30N 49°27' W 002°32'3 7.0
2017-Dec-02 18:01N 49°25' W 002°29'30 1.8
2017-Dec-02 01:49N 49°48' W 002°01'515.9
2017-Dec-02 01:31N 49°52' W 001°56'816.5
2017-Dec-02 01:00N 49°58' W 001°47'815.5
2017-Dec-02 00:30N 50°05' W 001°41'3214.9
2017-Dec-01 22:22N 50°32' W 001°14'616.1
2017-Dec-01 22:00N 50°36' W 001°08'815.3
2017-Dec-01 21:31N 50°43' W 001°03'611.9
2017-Dec-01 21:00N 50°49' W 001°07'1 1.2
2017-Dec-01 20:30N 50°49' W 001°06'0 0.0
2017-Dec-01 20:00N 50°49' W 001°06'0 0.0
2017-Dec-01 19:30N 50°49' W 001°06'0 0.0
2017-Dec-01 19:00N 50°49' W 001°06'0 0.0
2017-Dec-01 18:30N 50°49' W 001°06'1 1.7
2017-Dec-01 18:01N 50°48' W 001°07'4 8.7
2017-Dec-01 17:31N 50°44' W 001°04'  
Track history (hours):
 
Tides and Currents Weather Stations Pressure Air Temp Water Temp Dewpoint Dewpoint Depression Visibility Wind Speed Wind Dir Waves Ship Positions

Commodore Goodwill

Operator: Condor Marine Services

Last reported at 2017-Dec-11 17:00 UTC. Time now 2017-Dec-14 15:06 UTC.
Position N 50°49' W 001°06'.

Length 126 m; draft 5.2 m.

Type: Ship (hazmat cat C). MMSI: 309536000.

Date/timePositionNaut miles runAvg speedWind from/ knotsBaromVisibWave heightAir tempDewpointWater temp
2017-Dec-11 17:00N 50°49' W 001°06'0 0.0
2017-Dec-11 16:31N 50°49' W 001°06'0 0.0
2017-Dec-11 16:01N 50°49' W 001°06'0 0.0
2017-Dec-11 15:31N 50°49' W 001°06'0 0.0
2017-Dec-11 15:00N 50°49' W 001°06'0 0.1
2017-Dec-11 14:31N 50°49' W 001°06'3 6.1
2017-Dec-11 14:01N 50°46' W 001°05'713.5
2017-Dec-11 13:30N 50°39' W 001°05'1118.2
2017-Dec-11 12:54N 50°30' W 001°15'3115.5
2017-Dec-11 10:53N 50°03' W 001°42'513.8
2017-Dec-11 10:30N 49°59' W 001°46'713.2
2017-Dec-11 09:57N 49°54' W 001°53'613.0
2017-Dec-11 09:29N 49°49' W 001°59'1913.0
2017-Dec-11 08:00N 49°32' W 002°14'612.8
2017-Dec-11 07:30N 49°28' W 002°22'611.7
2017-Dec-11 07:00N 49°25' W 002°29'2 3.1
2017-Dec-11 06:20N 49°24' W 002°32'2 7.1
2017-Dec-11 06:01N 49°25' W 002°29'713.4
2017-Dec-11 05:29N 49°19' W 002°25'85 8.8
2017-Dec-10 19:46N 50°31' W 001°14'519.1
2017-Dec-10 19:30N 50°35' W 001°09'917.9
2017-Dec-10 19:00N 50°43' W 001°03'612.4
2017-Dec-10 18:30N 50°48' W 001°07'1 1.7
2017-Dec-10 18:00N 50°49' W 001°06'0 0.0
2017-Dec-10 17:30N 50°49' W 001°06'0 0.0
2017-Dec-10 17:00N 50°49' W 001°06'0 0.0
2017-Dec-10 16:30N 50°49' W 001°06'0 0.0
2017-Dec-10 16:00N 50°49' W 001°06'0 0.0
2017-Dec-10 15:30N 50°49' W 001°06'0 0.0
2017-Dec-10 15:00N 50°49' W 001°06'0 0.0
2017-Dec-10 14:30N 50°49' W 001°06'0 0.0
2017-Dec-10 14:00N 50°49' W 001°06'0 0.0
2017-Dec-10 13:30N 50°49' W 001°06'0 0.0
2017-Dec-10 13:00N 50°49' W 001°06'0 0.0
2017-Dec-10 12:30N 50°49' W 001°06'0 0.0
2017-Dec-10 12:00N 50°49' W 001°06'0 0.0
2017-Dec-10 11:30N 50°49' W 001°06'0 0.0
2017-Dec-10 11:00N 50°49' W 001°06'0 0.0
2017-Dec-10 10:31N 50°49' W 001°06'0 0.0
2017-Dec-10 10:00N 50°49' W 001°06'0 0.0
2017-Dec-10 09:30N 50°49' W 001°06'0 0.0
2017-Dec-10 09:00N 50°49' W 001°06'0 0.0
2017-Dec-10 08:30N 50°49' W 001°06'0 0.0
2017-Dec-10 08:00N 50°49' W 001°06'0 0.0
2017-Dec-10 07:30N 50°49' W 001°06'0 0.0
2017-Dec-10 07:00N 50°49' W 001°06'0 0.0
2017-Dec-10 06:30N 50°49' W 001°06'0 0.0
2017-Dec-10 06:00N 50°49' W 001°06'0 0.0
2017-Dec-10 05:30N 50°49' W 001°06'0 0.0
2017-Dec-10 05:00N 50°49' W 001°06'0 0.0
2017-Dec-10 04:30N 50°49' W 001°06'0 0.0
2017-Dec-10 04:00N 50°49' W 001°06'0 0.0
2017-Dec-10 03:30N 50°49' W 001°06'0 0.0
2017-Dec-10 03:00N 50°49' W 001°06'0 0.0
2017-Dec-10 02:30N 50°49' W 001°06'0 0.0
2017-Dec-10 02:00N 50°49' W 001°06'0 0.0
2017-Dec-10 01:30N 50°49' W 001°06'0 0.0
2017-Dec-10 01:00N 50°49' W 001°06'0 0.0
2017-Dec-10 00:30N 50°49' W 001°06'0 0.0
2017-Dec-10 00:00N 50°49' W 001°06'0 0.0
2017-Dec-09 23:30N 50°49' W 001°06'0 0.0
2017-Dec-09 23:00N 50°49' W 001°06'0 0.0
2017-Dec-09 22:30N 50°49' W 001°06'0 0.0
2017-Dec-09 22:00N 50°49' W 001°06'0 0.0
2017-Dec-09 21:30N 50°49' W 001°06'0 0.0
2017-Dec-09 21:00N 50°49' W 001°06'1 1.1
2017-Dec-09 20:30N 50°49' W 001°07'510.5
2017-Dec-09 20:00N 50°44' W 001°03'612.6
2017-Dec-09 19:30N 50°38' W 001°04'6213.9
2017-Dec-09 15:02N 49°47' W 002°00'212.7
2017-Dec-09 14:51N 49°45' W 002°02'1613.8
2017-Dec-09 13:42N 49°30' W 002°12'517.1
2017-Dec-09 13:25N 49°26' W 002°14'1117.0
2017-Dec-09 12:45N 49°15' W 002°21'717.7
2017-Dec-09 12:22N 49°09' W 002°17'14 2.0
2017-Dec-09 05:10N 49°22' W 002°26'213.6
2017-Dec-09 05:01N 49°23' W 002°28'5 9.4
2017-Dec-09 04:30N 49°27' W 002°32'0 0.0
2017-Dec-09 04:00N 49°27' W 002°32'0 0.0
2017-Dec-09 03:30N 49°27' W 002°32'0 0.1
2017-Dec-09 03:00N 49°27' W 002°32'510.8
2017-Dec-09 02:30N 49°27' W 002°23'8915.2
2017-Dec-08 20:40N 50°39' W 001°01'214.6
2017-Dec-08 20:30N 50°41' W 001°01'714.3
2017-Dec-08 20:00N 50°47' W 001°07'2 3.1
2017-Dec-08 19:30N 50°49' W 001°06'0 0.0
2017-Dec-08 19:01N 50°49' W 001°06'0 0.0
2017-Dec-08 18:31N 50°49' W 001°06'0 0.0
2017-Dec-08 18:00N 50°49' W 001°06'0 0.0
2017-Dec-08 17:31N 50°49' W 001°06'0 0.0
2017-Dec-08 17:00N 50°49' W 001°06'0 0.0
2017-Dec-08 16:30N 50°49' W 001°06'2 3.7
2017-Dec-08 16:01N 50°47' W 001°06'713.8
2017-Dec-08 15:30N 50°40' W 001°04'4116.6
2017-Dec-08 13:01N 50°06' W 001°40'117.2
2017-Dec-08 12:58N 50°05' W 001°40'917.9
2017-Dec-08 12:30N 49°57' W 001°47'918.1
2017-Dec-08 11:59N 49°50' W 001°55'1120.4
2017-Dec-08 11:27N 49°42' W 002°07'817.1
2017-Dec-08 10:58N 49°34' W 002°09'1018.2
2017-Dec-08 10:25N 49°25' W 002°14'817.6
2017-Dec-08 09:58N 49°20' W 002°24'510.3
2017-Dec-08 09:30N 49°16' W 002°28'5 1.1
2017-Dec-08 04:42N 49°21' W 002°28'316.0
2017-Dec-08 04:29N 49°25' W 002°29'3 7.0
2017-Dec-08 04:01N 49°27' W 002°32'0 0.0
2017-Dec-08 03:31N 49°27' W 002°32'0 0.0
2017-Dec-08 03:00N 49°27' W 002°32'4 8.3
2017-Dec-08 02:30N 49°26' W 002°26'814.8
2017-Dec-08 02:00N 49°31' W 002°16'8114.9
2017-Dec-07 20:32N 50°37' W 001°03'115.8
2017-Dec-07 20:27N 50°39' W 001°02'613.2
2017-Dec-07 20:00N 50°44' W 001°04'5 9.1
2017-Dec-07 19:30N 50°49' W 001°06'0 0.3
2017-Dec-07 19:00N 50°49' W 001°06'0 0.0
2017-Dec-07 18:30N 50°49' W 001°06'0 0.0
2017-Dec-07 18:01N 50°49' W 001°06'0 0.0
2017-Dec-07 17:30N 50°49' W 001°06'0 0.0
2017-Dec-07 17:00N 50°49' W 001°06'0 0.0
2017-Dec-07 16:30N 50°49' W 001°06'2 3.8
2017-Dec-07 16:01N 50°47' W 001°06'713.7
2017-Dec-07 15:30N 50°40' W 001°04'4115.2
2017-Dec-07 12:47N 50°06' W 001°39'518.6
2017-Dec-07 12:30N 50°01' W 001°43'1018.6
2017-Dec-07 11:58N 49°53' W 001°52'1120.7
2017-Dec-07 11:27N 49°44' W 002°02'818.1
2017-Dec-07 11:00N 49°36' W 002°05'1219.6
2017-Dec-07 10:23N 49°26' W 002°14'819.9
2017-Dec-07 10:00N 49°20' W 002°21'4 0.9
2017-Dec-07 05:41N 49°21' W 002°27'317.3
2017-Dec-07 05:31N 49°24' W 002°29'4 7.4
2017-Dec-07 05:00N 49°27' W 002°32'0 0.0
2017-Dec-07 04:30N 49°27' W 002°32'0 0.0
2017-Dec-07 04:00N 49°27' W 002°32'4 7.3
2017-Dec-07 03:31N 49°26' W 002°27'917.2
2017-Dec-07 03:00N 49°31' W 002°16'8113.9
2017-Dec-06 21:10N 50°37' W 001°03'211.1
2017-Dec-06 20:57N 50°39' W 001°01'  
2017-Dec-04 09:22N 49°19' W 002°19'4 0.9
2017-Dec-04 04:27N 49°20' W 002°25'5 8.9
2017-Dec-04 03:56N 49°24' W 002°28'4 9.2
2017-Dec-04 03:30N 49°27' W 002°32'0 0.1
2017-Dec-04 03:00N 49°27' W 002°32'4 7.3
2017-Dec-04 02:30N 49°26' W 002°26'611.5
2017-Dec-04 02:00N 49°29' W 002°19'2212.2
2017-Dec-04 00:12N 49°48' W 002°01'313.0
2017-Dec-04 00:00N 49°50' W 001°59'612.1
2017-Dec-03 23:30N 49°55' W 001°54'612.0
2017-Dec-03 23:00N 50°01' W 001°50'611.5
2017-Dec-03 22:30N 50°05' W 001°43'510.7
2017-Dec-03 22:00N 50°09' W 001°37'3012.7
2017-Dec-03 19:37N 50°33' W 001°10'310.9
2017-Dec-03 19:22N 50°36' W 001°08'512.1
2017-Dec-03 18:59N 50°40' W 001°04'612.0
2017-Dec-03 18:30N 50°45' W 001°05'3 6.9
2017-Dec-03 18:00N 50°49' W 001°06'0 0.0
2017-Dec-03 17:31N 50°49' W 001°06'0 0.0
2017-Dec-03 17:00N 50°49' W 001°06'0 0.0
2017-Dec-03 16:30N 50°49' W 001°06'0 0.0
2017-Dec-03 16:00N 50°49' W 001°06'0 0.0
2017-Dec-03 15:31N 50°49' W 001°06'0 0.0
2017-Dec-03 15:00N 50°49' W 001°06'0 0.0
2017-Dec-03 14:30N 50°49' W 001°06'0 0.0
2017-Dec-03 14:00N 50°49' W 001°06'0 0.0
2017-Dec-03 13:30N 50°49' W 001°06'0 0.0
2017-Dec-03 13:01N 50°49' W 001°06'0 0.0
2017-Dec-03 12:30N 50°49' W 001°06'0 0.0
2017-Dec-03 12:00N 50°49' W 001°06'0 0.0
2017-Dec-03 11:30N 50°49' W 001°06'0 0.0
2017-Dec-03 11:00N 50°49' W 001°06'0 0.0
2017-Dec-03 10:31N 50°49' W 001°06'0 0.0
2017-Dec-03 10:00N 50°49' W 001°06'0 0.0
2017-Dec-03 09:30N 50°49' W 001°06'0 0.0
2017-Dec-03 09:01N 50°49' W 001°06'0 0.0
2017-Dec-03 08:31N 50°49' W 001°06'0 0.0
2017-Dec-03 08:01N 50°49' W 001°06'0 0.0
2017-Dec-03 07:30N 50°49' W 001°06'0 0.0
2017-Dec-03 07:00N 50°49' W 001°06'0 0.0
2017-Dec-03 06:30N 50°49' W 001°06'1 1.3
2017-Dec-03 06:00N 50°48' W 001°07'2 3.7
2017-Dec-03 05:30N 50°47' W 001°06'714.4
2017-Dec-03 05:01N 50°40' W 001°00'910.4
2017-Dec-03 04:09N 50°33' W 001°08'1 8.6
2017-Dec-03 04:00N 50°32' W 001°10'3210.0
2017-Dec-03 00:45N 50°06' W 001°40'2 9.8
2017-Dec-03 00:30N 50°04' W 001°42'5 9.7
2017-Dec-03 00:00N 49°60' W 001°46'5 9.9
2017-Dec-02 23:30N 49°56' W 001°50'510.2
2017-Dec-02 23:00N 49°52' W 001°55'2110.2
2017-Dec-02 20:57N 49°33' W 002°10'510.5
2017-Dec-02 20:31N 49°31' W 002°16'510.9
2017-Dec-02 20:00N 49°28' W 002°23'4 8.7
2017-Dec-02 19:30N 49°27' W 002°30'2 3.1
2017-Dec-02 19:00N 49°27' W 002°32'0 0.0
2017-Dec-02 18:30N 49°27' W 002°32'3 7.0
2017-Dec-02 18:01N 49°25' W 002°29'30 1.8
2017-Dec-02 01:49N 49°48' W 002°01'515.9
2017-Dec-02 01:31N 49°52' W 001°56'816.5
2017-Dec-02 01:00N 49°58' W 001°47'815.5
2017-Dec-02 00:30N 50°05' W 001°41'3214.9
2017-Dec-01 22:22N 50°32' W 001°14'616.1
2017-Dec-01 22:00N 50°36' W 001°08'815.3
2017-Dec-01 21:31N 50°43' W 001°03'611.9
2017-Dec-01 21:00N 50°49' W 001°07'1 1.2
2017-Dec-01 20:30N 50°49' W 001°06'0 0.0
2017-Dec-01 20:00N 50°49' W 001°06'0 0.0
2017-Dec-01 19:30N 50°49' W 001°06'0 0.0
2017-Dec-01 19:00N 50°49' W 001°06'0 0.0
2017-Dec-01 18:30N 50°49' W 001°06'1 1.7
2017-Dec-01 18:01N 50°48' W 001°07'4 8.7
2017-Dec-01 17:31N 50°44' W 001°04'  

Dump ship's entire track history